Time;durP1;ratioP1;P1;durP2;ratioP2;P2;SDS_P1;SDS_P2;PMS_P1;PMS_P2;Temp;Humidity;BMP_temperature;BMP_pressure;BME280_temperature;BME280_humidity;BME280_pressure;Samples;Min_cycle;Max_cycle;Signal;HPM_P1;HPM_P2
2022/06/21 00:02:22;;;;;;;10.40;3.10;;;12.10;99.90;;;;;;6248006;22;20015;-87
2022/06/21 00:04:48;;;;;;;12.43;3.08;;;10.90;99.90;;;;;;6276214;22;20036;-87
2022/06/21 00:07:41;;;;;;;12.48;3.05;;;11.90;99.90;;;;;;6276991;22;20034;-87
2022/06/21 00:10:34;;;;;;;11.88;3.10;;;11.30;99.90;;;;;;6248444;22;20030;-87
2022/06/21 00:13:53;;;;;;;12.25;3.20;;;11.60;99.90;;;;;;6099055;23;20018;-87
2022/06/21 00:16:20;;;;;;;12.23;3.00;;;10.60;99.90;;;;;;6122129;23;20452;-87
2022/06/21 00:19:27;;;;;;;12.98;3.10;;;11.20;99.90;;;;;;6099134;23;20028;-87
2022/06/21 00:21:53;;;;;;;10.57;2.97;;;10.70;99.90;;;;;;6122923;23;20017;-87
2022/06/21 00:24:22;;;;;;;10.38;3.25;;;11.30;99.90;;;;;;6122211;23;20363;-86
2022/06/21 00:27:29;;;;;;;11.48;3.17;;;10.60;99.90;;;;;;6103104;23;20029;-87
2022/06/21 00:29:54;;;;;;;15.57;3.30;;;10.50;99.90;;;;;;6192814;23;20022;-86
2022/06/21 00:32:38;;;;;;;12.50;3.03;;;10.50;99.90;;;;;;6192405;23;20072;-87
2022/06/21 00:35:27;;;;;;;10.80;2.80;;;11.50;99.90;;;;;;6229522;22;20094;-87
2022/06/21 00:38:02;;;;;;;12.52;3.15;;;10.60;99.90;;;;;;6247963;22;20478;-87
2022/06/21 00:40:31;;;;;;;12.35;3.30;;;10.70;99.90;;;;;;6246211;22;20007;-86
2022/06/21 00:43:35;;;;;;;12.05;3.08;;;11.30;99.90;;;;;;6249088;22;20054;-87
2022/06/21 00:49:32;;;;;;;10.35;2.78;;;10.50;99.90;;;;;;6245623;22;20020;-86
2022/06/21 00:52:51;;;;;;;11.43;2.97;;;10.00;99.90;;;;;;6217589;23;20020;-86
2022/06/21 00:55:42;;;;;;;10.68;3.15;;;10.50;99.90;;;;;;6218675;23;20027;-86
2022/06/21 00:58:19;;;;;;;11.30;3.08;;;10.40;99.90;;;;;;6099871;23;20390;-87
2022/06/21 01:01:28;;;;;;;14.30;3.40;;;10.40;99.90;;;;;;6110315;23;20063;-87
2022/06/21 01:04:36;;;;;;;12.80;3.88;;;10.40;99.90;;;;;;6257152;23;20020;-86
2022/06/21 01:07:23;;;;;;;11.38;2.88;;;10.30;99.90;;;;;;6261391;23;20023;-87
2022/06/21 01:10:18;;;;;;;9.27;3.00;;;11.50;99.90;;;;;;6242421;22;20024;-86
2022/06/21 01:13:14;;;;;;;13.35;3.20;;;11.50;99.90;;;;;;6248783;22;20012;-87
2022/06/21 01:16:47;;;;;;;13.07;3.42;;;10.30;99.90;;;;;;6276084;22;20012;-87
2022/06/21 01:19:57;;;;;;;12.75;3.40;;;10.20;99.90;;;;;;6275102;22;20018;-86
2022/06/21 01:22:49;;;;;;;12.13;3.72;;;10.20;99.90;;;;;;6273692;22;20018;-87
2022/06/21 01:25:45;;;;;;;15.68;3.53;;;10.20;99.90;;;;;;6275818;22;20086;-87
2022/06/21 01:28:30;;;;;;;10.80;3.45;;;10.00;99.90;;;;;;6274921;22;20030;-87
2022/06/21 01:30:56;;;;;;;11.70;3.90;;;10.10;99.90;;;;;;6248051;22;20023;-87
2022/06/21 01:37:13;;;;;;;12.15;3.45;;;9.80;99.90;;;;;;6276545;22;20082;-87
2022/06/21 01:40:03;;;;;;;10.77;3.20;;;9.90;99.90;;;;;;6277482;22;20087;-87
2022/06/21 01:43:08;;;;;;;11.02;3.00;;;9.90;99.90;;;;;;6247785;22;20019;-87
2022/06/21 01:46:00;;;;;;;13.50;3.72;;;9.90;99.90;;;;;;6275623;22;20050;-87
2022/06/21 01:49:00;;;;;;;13.70;3.63;;;9.80;99.90;;;;;;6246180;22;20016;-87
2022/06/21 01:51:49;;;;;;;13.50;3.33;;;9.10;99.90;;;;;;6247899;22;20443;-87
2022/06/21 01:54:38;;;;;;;10.05;3.63;;;9.80;99.90;;;;;;6248748;22;20400;-87
2022/06/21 01:57:27;;;;;;;11.30;3.40;;;9.80;99.90;;;;;;6253393;22;20034;-87
2022/06/21 01:59:53;;;;;;;12.02;3.40;;;9.60;99.90;;;;;;6247458;22;20027;-87
2022/06/21 02:02:57;;;;;;;11.68;3.60;;;9.50;99.90;;;;;;6247655;22;20028;-87
2022/06/21 02:05:35;;;;;;;11.63;4.30;;;9.50;99.90;;;;;;6215646;22;20495;-87
2022/06/21 02:08:23;;;;;;;12.52;4.10;;;9.40;99.90;;;;;;6274866;22;20031;-87
2022/06/21 02:11:19;;;;;;;13.88;4.20;;;9.50;99.90;;;;;;6276882;22;20012;-87
2022/06/21 02:14:33;;;;;;;11.93;4.10;;;10.00;99.90;;;;;;6276588;22;20050;-87
2022/06/21 02:20:16;;;;;;;12.13;4.10;;;9.20;99.90;;;;;;6274563;22;20047;-87
2022/06/21 02:22:45;;;;;;;14.55;5.07;;;9.40;99.90;;;;;;6276841;22;20016;-86
2022/06/21 02:25:37;;;;;;;11.57;4.25;;;10.20;99.90;;;;;;6276875;22;20058;-86
2022/06/21 02:28:17;;;;;;;;;;;;;;;;;;;;;
2022/06/21 02:31:10;;;;;;;11.38;3.95;;;10.50;99.90;;;;;;6243669;22;20015;-87
2022/06/21 02:33:41;;;;;;;16.67;5.10;;;9.30;99.90;;;;;;6277573;22;20026;-87
2022/06/21 02:36:45;;;;;;;15.32;4.53;;;9.90;99.90;;;;;;6277775;22;20061;-87
2022/06/21 02:39:29;;;;;;;11.25;4.07;;;9.20;99.90;;;;;;6249200;22;20019;-87
2022/06/21 02:43:15;;;;;;;16.35;4.53;;;9.20;99.90;;;;;;6274373;22;20020;-87
2022/06/21 02:46:22;;;;;;;13.85;4.28;;;8.50;99.90;;;;;;6248852;22;20051;-87
2022/06/21 02:49:09;;;;;;;11.90;4.00;;;9.10;99.90;;;;;;6249652;22;20051;-87
2022/06/21 02:52:06;;;;;;;11.07;4.03;;;9.00;99.90;;;;;;6276775;22;20035;-86
2022/06/21 02:55:03;;;;;;;12.27;4.40;;;9.10;99.90;;;;;;6250985;22;20027;-87
2022/06/21 02:58:08;;;;;;;11.40;4.65;;;9.00;99.90;;;;;;6250846;22;20020;-87
2022/06/21 03:03:05;;;;;;;12.18;4.45;;;8.90;99.90;;;;;;6276704;22;20026;-87
2022/06/21 03:05:56;;;;;;;12.38;4.40;;;8.90;99.90;;;;;;6276625;22;20110;-87
2022/06/21 03:09:02;;;;;;;11.77;4.07;;;8.10;99.90;;;;;;6250114;22;20016;-86
2022/06/21 03:11:49;;;;;;;12.65;4.43;;;8.80;99.90;;;;;;6250168;22;20090;-87
2022/06/21 03:14:27;;;;;;;13.25;4.60;;;8.30;99.90;;;;;;6275945;22;20012;-86
2022/06/21 03:16:54;;;;;;;11.93;4.70;;;8.50;99.90;;;;;;6277200;22;20011;-87
2022/06/21 03:19:26;;;;;;;11.30;5.03;;;8.60;99.90;;;;;;6248743;22;20092;-87
2022/06/21 03:21:53;;;;;;;12.88;5.50;;;8.60;99.90;;;;;;6249971;22;20018;-87
2022/06/21 03:24:21;;;;;;;12.13;4.90;;;8.60;99.90;;;;;;6277549;22;20015;-87
2022/06/21 03:26:59;;;;;;;11.95;4.97;;;8.60;99.90;;;;;;6275484;22;20011;-87
2022/06/21 03:29:25;;;;;;;14.13;5.22;;;8.50;99.90;;;;;;6277668;22;20378;-87
2022/06/21 03:31:53;;;;;;;14.65;5.38;;;8.50;99.90;;;;;;6277008;22;20321;-87
2022/06/21 03:34:22;;;;;;;14.13;6.15;;;8.50;99.90;;;;;;6249026;22;20069;-87
2022/06/21 03:36:49;;;;;;;13.48;5.72;;;8.60;99.90;;;;;;6276107;22;20455;-87
2022/06/21 03:41:42;;;;;;;14.10;5.38;;;8.50;99.90;;;;;;6277010;22;20470;-87
2022/06/21 03:42:11;;;;;;;15.20;5.60;;;8.50;99.90;;;;;;6275399;22;20026;-88
2022/06/21 03:44:46;;;;;;;14.93;6.00;;;8.60;99.90;;;;;;6277241;22;20456;-87
2022/06/21 03:47:19;;;;;;;15.35;5.60;;;8.50;99.90;;;;;;6277185;22;20094;-87
2022/06/21 03:52:42;;;;;;;16.50;6.15;;;8.60;99.90;;;;;;6247034;22;20048;-87
2022/06/21 03:55:51;;;;;;;17.30;6.00;;;8.20;99.90;;;;;;6219751;23;20051;-87
2022/06/21 03:58:40;;;;;;;14.05;5.97;;;8.50;99.90;;;;;;6157511;22;20042;-86
2022/06/21 04:01:40;;;;;;;15.10;6.18;;;8.60;99.90;;;;;;6260107;22;20050;-88
2022/06/21 04:04:12;;;;;;;13.48;7.05;;;8.70;99.90;;;;;;6251085;22;20015;-87
2022/06/21 04:07:30;;;;;;;15.93;6.75;;;9.20;99.90;;;;;;6249138;22;20448;-87
2022/06/21 04:10:00;;;;;;;15.20;6.30;;;8.70;99.90;;;;;;6231487;22;20054;-88
2022/06/21 04:13:07;;;;;;;15.35;6.40;;;8.50;99.90;;;;;;6249442;22;20027;-87
2022/06/21 04:16:10;;;;;;;14.35;6.57;;;8.80;99.90;;;;;;6249056;22;20026;-88
2022/06/21 04:19:06;;;;;;;14.07;6.82;;;8.80;99.90;;;;;;6277088;22;20016;-87
2022/06/21 04:22:03;;;;;;;16.50;7.18;;;9.10;99.90;;;;;;6265252;22;20058;-87
2022/06/21 04:25:00;;;;;;;12.90;6.38;;;9.80;99.90;;;;;;6275277;22;20011;-87
2022/06/21 04:28:25;;;;;;;15.23;7.03;;;9.10;99.90;;;;;;6248705;22;20023;-87
2022/06/21 04:31:23;;;;;;;15.30;8.00;;;8.80;99.90;;;;;;6246788;22;20023;-87
2022/06/21 04:34:36;;;;;;;14.10;7.40;;;9.30;99.90;;;;;;6249114;22;20607;-87
2022/06/21 04:37:25;;;;;;;14.45;7.43;;;9.50;99.90;;;;;;6274985;22;20019;-87
2022/06/21 04:40:42;;;;;;;17.30;7.68;;;9.50;99.90;;;;;;6275960;22;20026;-87
2022/06/21 04:44:06;;;;;;;17.75;7.70;;;9.70;99.90;;;;;;6276709;22;20055;-87
2022/06/21 04:46:47;;;;;;;16.05;7.82;;;9.90;99.90;;;;;;6222514;22;20019;-87
2022/06/21 04:50:09;;;;;;;14.20;7.85;;;10.60;99.90;;;;;;6248331;22;20015;-87
2022/06/21 04:53:12;;;;;;;14.48;8.38;;;10.00;99.90;;;;;;6122969;23;20022;-87
2022/06/21 04:55:56;;;;;;;16.80;7.97;;;10.20;99.90;;;;;;6123467;23;20443;-87
2022/06/21 04:58:25;;;;;;;16.40;8.10;;;10.10;99.90;;;;;;6121753;23;20477;-87
2022/06/21 05:01:29;;;;;;;16.30;8.15;;;11.40;99.90;;;;;;6105520;23;20533;-87
2022/06/21 05:04:48;;;;;;;17.60;8.68;;;10.70;99.90;;;;;;6192574;23;20029;-87
2022/06/21 05:07:37;;;;;;;14.95;7.07;;;10.70;99.90;;;;;;6144613;23;20036;-86
2022/06/21 05:10:03;;;;;;;15.88;7.70;;;10.70;99.90;;;;;;6127715;23;20442;-87
2022/06/21 05:12:36;;;;;;;17.02;7.95;;;10.80;99.90;;;;;;6151702;23;20025;-87
2022/06/21 05:15:46;;;;;;;15.15;7.25;;;12.10;99.90;;;;;;6152450;23;20013;-87
2022/06/21 05:18:36;;;;;;;16.48;8.20;;;11.00;99.90;;;;;;6069430;23;20479;-86
2022/06/21 05:21:44;;;;;;;15.07;6.70;;;11.20;99.90;;;;;;6068588;23;20025;-87
2022/06/21 05:26:50;;;;;;;13.30;6.88;;;11.70;99.90;;;;;;6244096;22;20043;-87
2022/06/21 05:29:58;;;;;;;13.95;6.53;;;12.20;99.90;;;;;;6218421;23;20086;-87
2022/06/21 05:32:58;;;;;;;16.63;6.22;;;12.00;99.90;;;;;;6218430;23;20023;-87
2022/06/21 05:35:42;;;;;;;13.80;6.32;;;11.80;99.90;;;;;;6245633;23;20047;-87
2022/06/21 05:38:32;;;;;;;14.02;6.80;;;13.40;99.90;;;;;;6218752;23;20016;-87
2022/06/21 05:41:43;;;;;;;13.27;5.75;;;12.50;99.90;;;;;;6217357;23;20016;-87
2022/06/21 05:44:53;;;;;;;14.15;6.15;;;13.70;99.90;;;;;;6245864;23;20016;-87
2022/06/21 05:48:15;;;;;;;13.68;6.25;;;12.80;99.90;;;;;;6243884;23;20020;-87
2022/06/21 05:51:03;;;;;;;14.43;5.85;;;12.90;99.90;;;;;;6097768;23;20101;-87
2022/06/21 05:53:52;;;;;;;13.25;5.40;;;14.10;99.90;;;;;;6142437;23;20016;-87
2022/06/21 05:56:26;;;;;;;14.57;5.82;;;13.10;99.90;;;;;;6218322;23;20016;-87
2022/06/21 05:59:18;;;;;;;14.15;5.20;;;13.70;99.90;;;;;;6244598;23;20341;-87
2022/06/21 06:02:12;;;;;;;12.05;5.60;;;13.30;99.90;;;;;;6217064;23;20027;-87
2022/06/21 06:05:09;;;;;;;14.75;5.40;;;13.40;99.90;;;;;;6245304;23;20480;-87
2022/06/21 06:08:27;;;;;;;12.30;5.30;;;13.30;99.90;;;;;;6245013;23;20024;-87
2022/06/21 06:11:02;;;;;;;13.13;5.57;;;13.80;99.90;;;;;;5980860;23;20348;-87
2022/06/21 06:13:53;;;;;;;11.98;4.38;;;14.00;99.90;;;;;;6018538;23;20020;-86
2022/06/21 06:16:41;;;;;;;12.65;5.00;;;13.80;99.90;;;;;;6217750;23;20008;-87
2022/06/21 06:19:34;;;;;;;10.57;3.88;;;14.00;99.90;;;;;;6218754;23;20074;-87
2022/06/21 06:22:36;;;;;;;11.63;4.17;;;14.10;99.90;;;;;;6216492;23;20474;-87
2022/06/21 06:26:01;;;;;;;11.68;3.50;;;15.10;99.90;;;;;;6192958;23;20024;-87
2022/06/21 06:28:52;;;;;;;10.80;3.20;;;14.00;99.90;;;;;;6218275;23;20444;-87
2022/06/21 06:31:51;;;;;;;10.55;3.35;;;14.00;99.90;;;;;;6244705;23;20098;-87
2022/06/21 06:34:38;;;;;;;14.68;3.60;;;14.10;99.90;;;;;;6218308;23;20008;-87
2022/06/21 06:37:25;;;;;;;9.73;3.45;;;14.30;99.90;;;;;;6216038;23;20020;-87
2022/06/21 06:39:54;;;;;;;10.38;3.30;;;14.00;99.90;;;;;;6244551;23;20020;-87
2022/06/21 06:45:49;;;;;;;11.45;2.60;;;14.10;99.90;;;;;;6069263;23;20022;-90
2022/06/21 06:48:40;;;;;;;9.25;3.00;;;14.90;99.90;;;;;;6107428;23;20016;-88
2022/06/21 08:57:08;;;;;;;11.20;2.60;;;18.70;99.90;;;;;;6271511;22;20046;-95
2022/06/21 09:04:34;;;;;;;11.18;2.40;;;18.60;99.90;;;;;;6275685;22;20066;-94
2022/06/21 09:14:07;;;;;;;8.32;2.10;;;18.90;99.90;;;;;;6249057;22;20027;-92
2022/06/21 09:57:22;;;;;;;7.07;2.60;;;20.50;99.90;;;;;;6127987;23;20041;-93
2022/06/21 11:44:50;;;;;;;10.90;2.70;;;21.50;97.20;;;;;;6276221;22;20443;-95
2022/06/21 11:47:54;;;;;;;9.23;2.63;;;21.90;96.60;;;;;;6276856;22;20011;-90
2022/06/21 12:27:17;;;;;;;9.13;2.55;;;24.60;93.40;;;;;;6277250;22;20022;-90
2022/06/21 13:25:37;;;;;;;8.57;2.53;;;24.40;92.40;;;;;;6244333;23;20486;-91
2022/06/21 14:26:21;;;;;;;8.10;2.40;;;27.10;89.40;;;;;;6015277;23;20026;-91
2022/06/21 14:28:53;;;;;;;8.18;2.58;;;27.10;89.00;;;;;;6014291;23;20019;-90
2022/06/21 14:31:55;;;;;;;8.10;2.60;;;27.30;87.60;;;;;;6040489;23;20326;-93
2022/06/21 14:38:57;;;;;;;8.75;2.88;;;27.10;86.10;;;;;;6039247;23;20094;-89
2022/06/21 14:45:17;;;;;;;8.18;2.75;;;27.00;88.10;;;;;;6038909;23;20031;-90
2022/06/21 14:48:08;;;;;;;8.15;2.80;;;26.80;87.70;;;;;;6038685;23;20022;-89
2022/06/21 14:51:14;;;;;;;9.57;3.10;;;26.30;86.70;;;;;;6031523;23;20029;-89
2022/06/21 14:54:16;;;;;;;9.57;2.80;;;26.00;86.70;;;;;;6071791;23;20025;-90
2022/06/21 14:57:23;;;;;;;8.18;2.35;;;25.80;88.50;;;;;;6214453;23;20026;-90
2022/06/21 15:00:19;;;;;;;8.07;2.92;;;25.50;87.70;;;;;;6220523;23;20020;-91
2022/06/21 15:03:21;;;;;;;6.45;2.08;;;25.30;89.00;;;;;;6246916;23;20078;-91
2022/06/21 15:34:23;;;;;;;;;;;24.80;88.40;;;;;;6265599;22;20035;-89
2022/06/21 15:43:41;;;;;;;8.48;2.03;;;24.20;89.20;;;;;;6275363;22;20027;-91
2022/06/21 15:50:22;;;;;;;6.93;1.90;;;24.00;89.40;;;;;;6106394;23;20571;-95
2022/06/21 15:53:43;;;;;;;8.48;1.90;;;24.00;89.40;;;;;;6152307;23;20009;-93
2022/06/21 16:22:11;;;;;;;5.30;1.70;;;24.40;89.10;;;;;;6058451;23;20091;-92
2022/06/21 16:25:14;;;;;;;6.68;1.98;;;24.50;89.60;;;;;;6013593;23;20016;-92
2022/06/21 17:14:49;;;;;;;;;;;24.60;86.20;;;;;;6276749;22;20035;-91
2022/06/21 17:18:13;;;;;;;5.65;1.98;;;24.30;88.10;;;;;;6197426;22;19993;-88
2022/06/21 17:37:10;;;;;;;6.65;1.90;;;23.00;89.10;;;;;;6275484;22;20054;-91
2022/06/21 17:40:07;;;;;;;5.47;1.80;;;22.80;89.80;;;;;;6248935;22;20103;-90
2022/06/21 17:43:17;;;;;;;11.70;2.15;;;22.90;90.00;;;;;;6244994;22;20019;-91
2022/06/21 17:46:44;;;;;;;6.97;1.80;;;22.80;90.40;;;;;;6272483;22;20075;-91
2022/06/21 17:53:00;;;;;;;5.70;2.00;;;23.40;90.70;;;;;;6247945;22;20432;-91
2022/06/21 18:02:43;;;;;;;4.95;1.80;;;22.50;90.30;;;;;;6275713;22;20024;-92
2022/06/21 18:08:49;;;;;;;11.98;3.50;;;21.90;91.60;;;;;;6274500;22;20020;-90
2022/06/21 18:14:36;;;;;;;8.77;3.20;;;21.50;93.30;;;;;;6247603;22;20055;-90
2022/06/21 18:21:48;;;;;;;11.55;4.03;;;21.20;97.10;;;;;;6244198;23;20554;-90
2022/06/21 18:28:04;;;;;;;10.32;3.95;;;21.10;99.40;;;;;;6218086;23;20028;-90
2022/06/21 18:31:11;;;;;;;11.35;3.90;;;21.30;99.10;;;;;;6245519;23;20074;-90
2022/06/21 18:34:08;;;;;;;9.95;4.10;;;21.00;99.40;;;;;;6247152;22;20047;-90
2022/06/21 18:41:18;;;;;;;9.77;3.88;;;21.00;99.90;;;;;;6248361;22;20091;-89
2022/06/21 18:44:33;;;;;;;9.80;3.97;;;21.20;99.90;;;;;;6275703;22;20062;-90
2022/06/21 18:51:06;;;;;;;12.07;3.80;;;22.00;99.90;;;;;;6251537;22;20015;-91
2022/06/21 18:54:38;;;;;;;10.40;3.75;;;22.30;99.70;;;;;;6209876;22;20019;-90
2022/06/21 18:57:42;;;;;;;10.70;4.30;;;22.30;99.60;;;;;;6258503;22;20031;-91
2022/06/21 19:00:36;;;;;;;11.82;4.45;;;22.10;99.90;;;;;;6252127;22;20313;-91
2022/06/21 19:11:35;;;;;;;11.18;4.43;;;20.10;99.90;;;;;;6183685;23;20032;-91
2022/06/21 19:14:59;;;;;;;9.07;3.83;;;19.70;99.90;;;;;;6183363;23;20025;-90
2022/06/21 19:18:35;;;;;;;11.63;4.63;;;19.20;99.90;;;;;;6119124;23;20075;-90
2022/06/21 19:21:57;;;;;;;12.07;4.63;;;19.00;99.90;;;;;;6210537;22;20050;-90
2022/06/21 19:30:29;;;;;;;11.65;4.82;;;18.50;99.90;;;;;;6276258;22;20020;-89
2022/06/21 19:33:58;;;;;;;12.85;5.07;;;18.50;99.90;;;;;;6280684;22;20081;-88
2022/06/21 19:37:30;;;;;;;12.40;4.82;;;18.40;99.90;;;;;;6277985;22;20019;-93
2022/06/21 19:40:48;;;;;;;13.07;4.95;;;18.10;99.90;;;;;;6249443;22;20028;-92
2022/06/21 19:43:57;;;;;;;11.50;5.03;;;18.10;99.90;;;;;;6249602;22;20458;-92
2022/06/21 19:50:22;;;;;;;;;;;17.80;99.90;;;;;;6253609;22;20103;-91
2022/06/21 19:56:52;;;;;;;11.88;5.20;;;17.50;99.90;;;;;;6168710;22;20082;-92
2022/06/21 20:03:42;;;;;;;12.93;5.68;;;17.20;99.90;;;;;;6175532;22;20017;-92
2022/06/21 20:06:55;;;;;;;17.90;5.55;;;17.10;99.90;;;;;;6251851;22;20043;-92
2022/06/21 20:13:48;;;;;;;11.52;5.28;;;17.10;99.90;;;;;;6223898;22;20066;-91
2022/06/21 20:33:14;;;;;;;14.30;5.38;;;16.50;99.90;;;;;;6277497;22;20024;-86
2022/06/21 20:35:58;;;;;;;14.88;5.78;;;16.40;99.90;;;;;;6277962;22;20019;-86
2022/06/21 20:39:13;;;;;;;10.57;5.55;;;16.30;99.90;;;;;;6245685;22;20035;-86
2022/06/21 20:42:13;;;;;;;15.02;6.25;;;16.30;99.90;;;;;;6277305;22;20015;-85
2022/06/21 20:44:41;;;;;;;16.92;6.18;;;16.10;99.90;;;;;;6250087;22;20076;-85
2022/06/21 20:47:48;;;;;;;18.45;6.80;;;16.70;99.90;;;;;;6246682;22;20023;-86
2022/06/21 20:50:45;;;;;;;13.55;6.47;;;16.10;99.90;;;;;;6275553;22;20042;-86
2022/06/21 20:53:16;;;;;;;14.18;6.45;;;15.80;99.90;;;;;;6262764;22;20026;-86
2022/06/21 20:56:19;;;;;;;14.45;6.78;;;16.80;99.90;;;;;;6277090;22;20058;-85
2022/06/21 20:59:19;;;;;;;11.85;6.65;;;15.50;99.90;;;;;;6250127;22;20090;-86
2022/06/21 21:02:24;;;;;;;14.52;7.40;;;15.80;99.90;;;;;;6275276;22;20099;-87
2022/06/21 21:04:49;;;;;;;14.00;7.20;;;15.60;99.90;;;;;;6276332;22;20039;-85
2022/06/21 21:11:11;;;;;;;16.13;7.83;;;15.20;99.90;;;;;;6249219;22;20019;-87
2022/06/21 21:13:58;;;;;;;13.15;7.60;;;15.50;99.90;;;;;;6276588;22;20340;-86
2022/06/21 21:20:29;;;;;;;15.27;7.28;;;15.40;99.90;;;;;;6099245;23;20022;-86
2022/06/21 21:23:14;;;;;;;14.43;7.70;;;15.90;99.90;;;;;;6258464;22;20047;-86
2022/06/21 21:26:23;;;;;;;16.33;8.10;;;15.20;99.90;;;;;;6250318;22;20077;-88
2022/06/21 21:32:23;;;;;;;;;;;;;;;;;;;;;
2022/06/21 21:35:21;;;;;;;15.88;7.90;;;15.00;99.90;;;;;;6249660;22;20058;-88
2022/06/21 21:42:16;;;;;;;13.98;7.10;;;15.00;99.90;;;;;;6210013;22;20125;-86
2022/06/21 21:44:55;;;;;;;15.50;7.63;;;15.00;99.90;;;;;;6258730;22;20030;-87
2022/06/21 21:48:11;;;;;;;16.38;8.10;;;15.50;99.90;;;;;;6247905;22;20011;-87
2022/06/21 21:51:23;;;;;;;16.25;7.78;;;14.90;99.90;;;;;;6274911;22;20047;-87
2022/06/21 21:53:52;;;;;;;16.02;8.15;;;14.90;99.90;;;;;;6258767;22;20042;-86
2022/06/21 21:56:41;;;;;;;17.60;7.63;;;14.80;99.90;;;;;;6287994;22;20463;-87
2022/06/21 21:59:17;;;;;;;17.55;7.88;;;15.50;99.90;;;;;;6282556;22;20042;-87
2022/06/21 22:01:49;;;;;;;13.63;7.22;;;14.90;99.90;;;;;;6250693;22;20145;-87
2022/06/21 22:04:55;;;;;;;14.55;7.70;;;14.70;99.90;;;;;;6282138;22;20019;-86
2022/06/21 22:07:44;;;;;;;14.38;7.43;;;14.70;99.90;;;;;;6252061;22;20058;-87
2022/06/21 22:10:28;;;;;;;14.45;7.60;;;14.70;99.90;;;;;;6283212;22;20019;-88
2022/06/21 22:13:31;;;;;;;14.38;7.22;;;14.60;99.90;;;;;;6251706;22;20024;-87
2022/06/21 22:15:59;;;;;;;14.90;7.00;;;14.60;99.90;;;;;;6275864;22;20023;-87
2022/06/21 22:18:47;;;;;;;16.17;7.13;;;14.60;99.90;;;;;;6248847;22;20348;-88
2022/06/21 22:21:20;;;;;;;13.80;7.57;;;14.60;99.90;;;;;;6249496;22;20148;-87
2022/06/21 22:23:55;;;;;;;17.90;7.57;;;14.80;99.90;;;;;;6274636;22;20012;-88
2022/06/21 22:26:45;;;;;;;13.13;7.47;;;14.50;99.90;;;;;;6276517;22;20023;-88
2022/06/21 22:29:24;;;;;;;15.57;7.90;;;14.40;99.90;;;;;;6249996;22;20314;-88
2022/06/21 22:34:42;;;;;;;13.75;7.55;;;14.20;99.90;;;;;;6260079;22;20023;-88
2022/06/21 22:37:43;;;;;;;16.67;7.80;;;15.40;99.90;;;;;;6250203;22;20027;-88
2022/06/21 22:40:27;;;;;;;14.63;8.05;;;14.40;99.90;;;;;;6275399;22;20034;-87
2022/06/21 22:43:00;;;;;;;15.32;7.72;;;15.20;99.90;;;;;;6250156;22;20340;-88
2022/06/21 22:45:41;;;;;;;16.30;7.80;;;14.20;99.90;;;;;;6277358;22;20026;-88
2022/06/21 22:48:39;;;;;;;17.30;8.18;;;15.00;99.90;;;;;;6249342;22;20030;-90
2022/06/21 22:51:08;;;;;;;17.23;8.02;;;14.10;99.90;;;;;;6250423;22;20437;-89
2022/06/21 22:53:54;;;;;;;15.57;8.15;;;14.30;99.90;;;;;;6249794;22;20023;-88
2022/06/21 22:56:41;;;;;;;17.13;8.63;;;14.90;99.90;;;;;;6250624;22;20015;-88
2022/06/21 22:59:51;;;;;;;16.92;8.90;;;14.00;99.90;;;;;;6249791;22;20016;-89
2022/06/21 23:03:09;;;;;;;16.27;8.50;;;13.90;99.90;;;;;;6276385;22;20054;-88
2022/06/21 23:06:15;;;;;;;15.25;8.98;;;13.80;99.90;;;;;;6250135;22;20474;-88
2022/06/21 23:08:44;;;;;;;17.52;8.48;;;13.90;99.90;;;;;;6248062;22;20023;-89
2022/06/21 23:11:25;;;;;;;17.00;8.95;;;14.50;99.90;;;;;;6250567;22;20007;-89
2022/06/21 23:13:58;;;;;;;15.15;8.60;;;13.70;99.90;;;;;;6277341;22;20015;-88
2022/06/21 23:16:35;;;;;;;17.27;8.45;;;13.70;99.90;;;;;;6276656;22;20332;-89
2022/06/21 23:19:03;;;;;;;19.52;9.77;;;13.60;99.90;;;;;;6277772;22;20020;-88
2022/06/21 23:21:39;;;;;;;17.58;9.10;;;13.70;99.90;;;;;;6277996;22;20022;-88
2022/06/21 23:24:07;;;;;;;18.15;8.77;;;13.60;99.90;;;;;;6275890;22;20475;-88
2022/06/21 23:26:53;;;;;;;17.60;9.20;;;13.50;99.90;;;;;;6250537;22;20019;-88
2022/06/21 23:29:27;;;;;;;18.08;9.20;;;13.50;99.90;;;;;;6144817;22;20012;-88
2022/06/21 23:31:55;;;;;;;;;;;13.40;99.90;;;;;;6250378;22;20095;-89
2022/06/21 23:34:30;;;;;;;16.75;9.20;;;13.40;99.90;;;;;;6250102;22;19941;-87
2022/06/21 23:36:58;;;;;;;17.20;8.75;;;13.30;99.90;;;;;;6248743;22;20073;-88
2022/06/21 23:39:28;;;;;;;17.92;9.40;;;13.80;99.90;;;;;;6277519;22;20008;-88
2022/06/21 23:42:01;;;;;;;16.80;8.82;;;13.20;99.90;;;;;;6250108;22;20015;-88
2022/06/21 23:44:34;;;;;;;18.67;9.10;;;13.20;99.90;;;;;;6275155;22;20106;-89
2022/06/21 23:47:00;;;;;;;16.20;8.63;;;13.40;99.90;;;;;;6250421;22;20390;-88
2022/06/21 23:49:29;;;;;;;17.05;9.23;;;13.50;99.90;;;;;;6250063;22;20019;-89
2022/06/21 23:52:05;;;;;;;16.35;9.30;;;14.10;99.90;;;;;;6247645;22;20023;-89
2022/06/21 23:54:40;;;;;;;17.92;8.80;;;13.00;99.90;;;;;;6248398;22;20019;-89
2022/06/21 23:57:24;;;;;;;17.67;8.60;;;13.40;99.90;;;;;;6276226;22;20072;-89
